Time;durP1;ratioP1;P1;durP2;ratioP2;P2;SDS_P1;SDS_P2;PMS_P1;PMS_P2;Temp;Humidity;BMP_temperature;BMP_pressure;BME280_temperature;BME280_humidity;BME280_pressure;Samples;Min_cycle;Max_cycle;Signal;HPM_P1;HPM_P2
2023/12/25 00:02:14;;;;;;;7.35;1.30;;;11.40;99.90;;;;;;5034695;28;20047;-74
2023/12/25 00:04:41;;;;;;;7.60;1.55;;;11.40;99.90;;;;;;5046118;28;20452;-73
2023/12/25 00:07:08;;;;;;;2.67;0.70;;;11.30;99.90;;;;;;5048284;28;20759;-74
2023/12/25 00:09:34;;;;;;;4.78;0.52;;;11.30;99.90;;;;;;5043702;28;20084;-74
2023/12/25 00:12:00;;;;;;;11.38;2.10;;;11.40;99.90;;;;;;5023153;28;20129;-73
2023/12/25 00:14:26;;;;;;;3.53;0.77;;;11.40;99.90;;;;;;5026674;28;20102;-74
2023/12/25 00:16:52;;;;;;;10.18;2.15;;;11.40;99.90;;;;;;5025218;28;20323;-74
2023/12/25 00:19:17;;;;;;;2.97;0.68;;;11.40;99.90;;;;;;5008643;28;20049;-74
2023/12/25 00:21:43;;;;;;;2.72;1.08;;;11.50;99.90;;;;;;5021976;28;20043;-74
2023/12/25 00:24:09;;;;;;;2.78;0.70;;;11.50;99.90;;;;;;5018764;28;20407;-73
2023/12/25 00:26:34;;;;;;;12.27;1.67;;;11.50;99.90;;;;;;5026744;28;20041;-74
2023/12/25 00:29:00;;;;;;;2.88;0.77;;;11.50;99.90;;;;;;5045296;28;20078;-74
2023/12/25 00:31:26;;;;;;;4.45;1.02;;;11.40;99.90;;;;;;5035886;28;20430;-74
2023/12/25 00:33:52;;;;;;;11.02;2.10;;;11.40;99.90;;;;;;5028036;28;20043;-73
2023/12/25 00:36:17;;;;;;;3.55;0.90;;;11.40;99.90;;;;;;5023271;28;20045;-73
2023/12/25 00:38:43;;;;;;;4.30;1.20;;;11.40;99.90;;;;;;5037171;28;20047;-73
2023/12/25 00:41:09;;;;;;;9.32;1.55;;;11.40;99.90;;;;;;5007162;28;20128;-73
2023/12/25 00:43:35;;;;;;;1.55;0.60;;;11.40;99.90;;;;;;5014091;28;20562;-73
2023/12/25 00:46:07;;;;;;;2.00;0.70;;;11.40;99.90;;;;;;5044191;28;20055;-73
2023/12/25 00:48:33;;;;;;;4.13;0.77;;;11.40;99.90;;;;;;5030141;28;20617;-74
2023/12/25 00:50:59;;;;;;;7.10;1.25;;;11.40;99.90;;;;;;5044876;28;20079;-73
2023/12/25 00:53:25;;;;;;;4.93;0.65;;;11.40;99.90;;;;;;5031151;28;20425;-74
2023/12/25 00:55:51;;;;;;;2.47;0.75;;;11.40;99.90;;;;;;5016618;28;20045;-74
2023/12/25 00:58:17;;;;;;;3.83;0.95;;;11.40;99.90;;;;;;5007634;28;20056;-74
2023/12/25 01:00:43;;;;;;;2.10;0.80;;;11.40;99.90;;;;;;5028862;28;20079;-74
2023/12/25 01:03:09;;;;;;;1.52;0.60;;;11.40;99.90;;;;;;5007003;28;20048;-73
2023/12/25 01:05:34;;;;;;;7.88;0.88;;;11.40;99.90;;;;;;5029765;28;20043;-73
2023/12/25 01:08:00;;;;;;;5.78;1.73;;;11.40;99.90;;;;;;5016428;28;20060;-74
2023/12/25 01:10:26;;;;;;;7.60;1.20;;;11.40;99.90;;;;;;5017263;28;20716;-74
2023/12/25 01:12:51;;;;;;;6.15;1.20;;;11.40;99.90;;;;;;5014297;28;20044;-74
2023/12/25 01:15:17;;;;;;;3.60;0.98;;;11.40;99.90;;;;;;5033603;28;20049;-74
2023/12/25 01:17:43;;;;;;;9.18;2.15;;;11.40;99.90;;;;;;5029126;28;20765;-74
2023/12/25 01:20:11;;;;;;;7.43;1.50;;;11.40;99.90;;;;;;5036967;28;20410;-74
2023/12/25 01:22:37;;;;;;;7.40;0.90;;;11.40;99.90;;;;;;5024198;28;20052;-73
2023/12/25 01:25:04;;;;;;;3.53;1.02;;;11.40;99.90;;;;;;5024702;28;20107;-73
2023/12/25 01:27:29;;;;;;;11.93;2.50;;;11.40;99.90;;;;;;5008773;28;20049;-73
2023/12/25 01:29:55;;;;;;;7.60;2.50;;;11.40;99.90;;;;;;5024858;28;20055;-72
2023/12/25 01:32:21;;;;;;;10.18;1.73;;;11.30;99.90;;;;;;5010357;28;20036;-73
2023/12/25 01:34:46;;;;;;;6.55;1.55;;;11.30;99.90;;;;;;5006893;28;20048;-74
2023/12/25 01:37:13;;;;;;;10.65;2.35;;;11.20;99.90;;;;;;5035767;28;20040;-73
2023/12/25 01:39:39;;;;;;;7.75;1.20;;;11.20;99.90;;;;;;5017814;28;20048;-73
2023/12/25 01:42:05;;;;;;;7.43;2.05;;;11.20;99.90;;;;;;5008437;28;20048;-73
2023/12/25 01:44:30;;;;;;;5.80;1.42;;;11.10;99.90;;;;;;5014459;28;20142;-72
2023/12/25 01:46:56;;;;;;;2.35;0.95;;;11.10;99.90;;;;;;5027509;28;20040;-73
2023/12/25 01:49:22;;;;;;;8.63;1.45;;;11.10;99.90;;;;;;5033207;28;20053;-74
2023/12/25 01:51:51;;;;;;;12.70;2.25;;;11.10;99.90;;;;;;5063059;28;20102;-72
2023/12/25 01:54:17;;;;;;;2.38;0.98;;;11.20;99.90;;;;;;5034883;28;20052;-74
2023/12/25 01:56:43;;;;;;;5.20;0.70;;;11.10;99.90;;;;;;5008431;28;20053;-73
2023/12/25 01:59:09;;;;;;;11.32;2.20;;;11.00;99.90;;;;;;5031392;28;20502;-72
2023/12/25 02:01:35;;;;;;;2.13;0.57;;;11.00;99.90;;;;;;5030120;28;20095;-73
2023/12/25 02:04:01;;;;;;;11.63;2.30;;;11.00;99.90;;;;;;5027036;28;20045;-72
2023/12/25 02:06:28;;;;;;;4.80;1.05;;;11.10;99.90;;;;;;5022190;28;20495;-73
2023/12/25 02:08:54;;;;;;;2.85;0.70;;;11.00;99.90;;;;;;5005043;28;20220;-74
2023/12/25 02:11:20;;;;;;;8.35;1.35;;;10.90;99.90;;;;;;5019214;28;20057;-72
2023/12/25 02:13:45;;;;;;;9.63;1.92;;;10.90;99.90;;;;;;5061002;28;20053;-73
2023/12/25 02:16:11;;;;;;;4.50;1.50;;;11.00;99.90;;;;;;5023895;28;20040;-74
2023/12/25 02:18:38;;;;;;;9.30;1.95;;;10.90;99.90;;;;;;5024880;28;20127;-72
2023/12/25 02:21:04;;;;;;;3.65;0.63;;;10.90;99.90;;;;;;5030119;28;20114;-73
2023/12/25 02:23:32;;;;;;;10.13;1.98;;;10.90;99.90;;;;;;5025251;28;20052;-72
2023/12/25 02:26:01;;;;;;;8.98;1.42;;;10.90;99.90;;;;;;5033411;28;20115;-73
2023/12/25 02:28:27;;;;;;;8.85;1.95;;;10.80;99.90;;;;;;5022035;28;20127;-73
2023/12/25 02:30:53;;;;;;;15.32;2.55;;;10.70;99.90;;;;;;5021799;28;20051;-74
2023/12/25 02:33:19;;;;;;;14.30;2.92;;;10.70;99.90;;;;;;5010063;28;20388;-72
2023/12/25 02:35:45;;;;;;;9.35;1.55;;;10.70;99.90;;;;;;5011429;28;20049;-74
2023/12/25 02:38:10;;;;;;;12.13;3.50;;;10.70;99.90;;;;;;5027435;28;20044;-72
2023/12/25 02:40:39;;;;;;;12.88;2.85;;;10.70;99.90;;;;;;5024244;28;20044;-73
2023/12/25 02:43:09;;;;;;;11.52;2.60;;;10.60;99.90;;;;;;5033729;28;20380;-72
2023/12/25 02:45:35;;;;;;;9.00;1.65;;;10.60;99.90;;;;;;5036977;28;20476;-72
2023/12/25 02:48:01;;;;;;;10.05;1.65;;;10.60;99.90;;;;;;5028451;28;20037;-72
2023/12/25 02:50:27;;;;;;;14.40;1.90;;;10.60;99.90;;;;;;5021734;28;20068;-73
2023/12/25 02:52:53;;;;;;;8.68;1.98;;;10.50;99.90;;;;;;5040776;28;20509;-72
2023/12/25 02:55:19;;;;;;;13.82;2.15;;;10.50;99.90;;;;;;5037769;28;20486;-73
2023/12/25 02:57:44;;;;;;;7.80;1.67;;;10.50;99.90;;;;;;5004622;28;20094;-72
2023/12/25 03:00:10;;;;;;;12.68;2.40;;;10.50;99.90;;;;;;5017123;28;20047;-72
2023/12/25 03:02:36;;;;;;;8.00;1.55;;;10.50;99.90;;;;;;5036756;28;20055;-72
2023/12/25 03:05:02;;;;;;;13.65;2.83;;;10.50;99.90;;;;;;5008847;28;20052;-72
2023/12/25 03:07:27;;;;;;;5.85;1.25;;;10.40;99.90;;;;;;5009143;28;20577;-72
2023/12/25 03:09:53;;;;;;;6.85;1.60;;;10.50;99.90;;;;;;5020131;28;20504;-72
2023/12/25 03:12:19;;;;;;;8.15;1.23;;;10.40;99.90;;;;;;5011306;28;20557;-72
2023/12/25 03:14:45;;;;;;;4.85;1.20;;;10.40;99.90;;;;;;5039783;28;20092;-72
2023/12/25 03:17:10;;;;;;;3.97;1.02;;;10.40;99.90;;;;;;5011227;28;20410;-72
2023/12/25 03:19:36;;;;;;;5.90;1.48;;;10.40;99.90;;;;;;5011297;28;20077;-72
2023/12/25 03:22:02;;;;;;;2.90;1.05;;;10.40;99.90;;;;;;5012231;28;20072;-72
2023/12/25 03:24:28;;;;;;;18.55;1.95;;;10.40;99.90;;;;;;5028514;28;20494;-72
2023/12/25 03:26:54;;;;;;;3.20;1.27;;;10.40;99.90;;;;;;5038168;28;20041;-73
2023/12/25 03:29:19;;;;;;;8.45;1.45;;;10.30;99.90;;;;;;5009840;28;20045;-72
2023/12/25 03:31:45;;;;;;;18.35;2.45;;;10.40;99.90;;;;;;5040595;28;20076;-72
2023/12/25 03:34:18;;;;;;;1.75;1.17;;;10.40;99.90;;;;;;5029225;28;20052;-72
2023/12/25 03:36:46;;;;;;;6.63;1.88;;;10.30;99.90;;;;;;5031657;28;20045;-73
2023/12/25 03:39:12;;;;;;;2.03;1.02;;;10.30;99.90;;;;;;5018894;28;20087;-72
2023/12/25 03:41:38;;;;;;;9.23;1.48;;;10.30;99.90;;;;;;5010229;28;20479;-72
2023/12/25 03:44:04;;;;;;;14.93;2.08;;;10.30;99.90;;;;;;5019509;28;20487;-72
2023/12/25 03:46:29;;;;;;;7.18;1.30;;;10.30;99.90;;;;;;5058190;28;20099;-72
2023/12/25 03:48:55;;;;;;;5.38;1.30;;;10.40;99.90;;;;;;5021904;28;20131;-73
2023/12/25 03:51:21;;;;;;;9.23;1.00;;;10.40;99.90;;;;;;5058728;28;20446;-73
2023/12/25 03:53:47;;;;;;;14.25;2.75;;;10.40;99.90;;;;;;5022306;28;20322;-72
2023/12/25 03:56:17;;;;;;;10.07;1.10;;;10.40;99.90;;;;;;5009995;28;20057;-72
2023/12/25 03:58:43;;;;;;;;;;;10.40;99.90;;;;;;5008981;28;20132;-72
2023/12/25 04:01:09;;;;;;;10.20;1.75;;;10.40;99.90;;;;;;5029804;28;20453;-72
2023/12/25 04:03:35;;;;;;;8.20;2.42;;;10.30;99.90;;;;;;5014009;28;20046;-72
2023/12/25 04:06:01;;;;;;;13.98;2.65;;;10.30;99.90;;;;;;5012999;28;20040;-72
2023/12/25 04:08:26;;;;;;;11.55;2.83;;;10.30;99.90;;;;;;5035019;28;20052;-72
2023/12/25 04:10:52;;;;;;;17.95;2.75;;;10.30;99.90;;;;;;5028845;28;20127;-72
2023/12/25 04:13:18;;;;;;;7.15;1.83;;;10.20;99.90;;;;;;5020211;28;20049;-72
2023/12/25 04:15:44;;;;;;;13.65;2.25;;;10.20;99.90;;;;;;5027477;28;20051;-73
2023/12/25 04:18:09;;;;;;;7.97;1.35;;;10.20;99.90;;;;;;5027970;28;20045;-72
2023/12/25 04:20:36;;;;;;;20.23;3.38;;;10.20;99.90;;;;;;5015120;28;20103;-71
2023/12/25 04:23:02;;;;;;;15.98;2.63;;;10.20;99.90;;;;;;5009878;28;20076;-72
2023/12/25 04:25:28;;;;;;;13.38;2.03;;;10.20;99.90;;;;;;5024652;28;20132;-72
2023/12/25 04:27:54;;;;;;;12.93;3.33;;;10.20;99.90;;;;;;5012562;28;20477;-72
2023/12/25 04:30:19;;;;;;;12.82;2.60;;;10.20;99.90;;;;;;5044254;28;20057;-72
2023/12/25 04:32:45;;;;;;;15.27;2.85;;;10.20;99.90;;;;;;5026325;28;20102;-71
2023/12/25 04:35:11;;;;;;;8.60;1.83;;;10.20;99.90;;;;;;5028926;28;20128;-72
2023/12/25 04:37:38;;;;;;;13.50;3.00;;;10.10;99.90;;;;;;5011103;28;20134;-72
2023/12/25 04:40:04;;;;;;;13.27;2.22;;;10.10;99.90;;;;;;5026830;28;20105;-72
2023/12/25 04:42:30;;;;;;;13.95;3.22;;;10.10;99.90;;;;;;5007436;28;20502;-72
2023/12/25 04:44:56;;;;;;;16.90;3.67;;;10.10;99.90;;;;;;5041503;28;20110;-71
2023/12/25 04:47:22;;;;;;;19.80;3.50;;;10.10;99.90;;;;;;5007950;28;20406;-71
2023/12/25 04:49:48;;;;;;;14.73;3.17;;;10.10;99.90;;;;;;5039782;28;20044;-72
2023/12/25 04:52:14;;;;;;;11.10;2.95;;;10.10;99.90;;;;;;5026680;28;20052;-71
2023/12/25 04:54:41;;;;;;;12.07;2.80;;;10.10;99.90;;;;;;5014144;28;20037;-72
2023/12/25 04:57:07;;;;;;;14.40;2.72;;;10.10;99.90;;;;;;5025604;28;20486;-72
2023/12/25 04:59:32;;;;;;;8.82;2.13;;;10.10;99.90;;;;;;5059863;28;20121;-72
2023/12/25 05:02:00;;;;;;;17.98;2.60;;;10.10;99.90;;;;;;5016050;28;20053;-71
2023/12/25 05:04:26;;;;;;;13.75;3.00;;;10.10;99.90;;;;;;5016553;28;20048;-72
2023/12/25 05:06:52;;;;;;;10.90;2.35;;;10.10;99.90;;;;;;5025003;28;20053;-71
2023/12/25 05:09:19;;;;;;;13.65;2.25;;;10.20;99.90;;;;;;5012246;28;20154;-71
2023/12/25 05:11:44;;;;;;;11.00;1.85;;;10.10;99.90;;;;;;5005694;28;20080;-72
2023/12/25 05:14:10;;;;;;;12.63;2.67;;;10.10;99.90;;;;;;5031275;28;20041;-71
2023/12/25 05:16:36;;;;;;;15.45;2.58;;;10.10;99.90;;;;;;5018538;28;20055;-71
2023/12/25 05:19:02;;;;;;;12.95;2.53;;;10.00;99.90;;;;;;5008491;28;20142;-72
2023/12/25 05:21:27;;;;;;;14.20;2.83;;;10.00;99.90;;;;;;5008582;28;20048;-71
2023/12/25 05:23:53;;;;;;;22.88;3.47;;;10.00;99.90;;;;;;5016335;28;20044;-71
2023/12/25 05:26:20;;;;;;;17.30;3.00;;;10.00;99.90;;;;;;5024044;28;20064;-72
2023/12/25 05:28:46;;;;;;;17.75;2.97;;;10.00;99.90;;;;;;5007939;28;20054;-71
2023/12/25 05:31:13;;;;;;;19.33;2.63;;;10.00;99.90;;;;;;5011401;28;20572;-71
2023/12/25 05:33:39;;;;;;;11.65;2.15;;;10.00;99.90;;;;;;5018060;28;20080;-71
2023/12/25 05:36:05;;;;;;;11.20;2.05;;;10.00;99.90;;;;;;5023849;28;20134;-72
2023/12/25 05:38:30;;;;;;;12.10;1.98;;;10.00;99.90;;;;;;5020236;28;20072;-71
2023/12/25 05:40:56;;;;;;;9.68;1.60;;;10.00;99.90;;;;;;5008069;28;20545;-71
2023/12/25 05:43:22;;;;;;;19.40;2.83;;;10.00;99.90;;;;;;5017076;28;20135;-71
2023/12/25 05:45:48;;;;;;;14.65;2.75;;;10.00;99.90;;;;;;5021064;28;20044;-71
2023/12/25 05:48:13;;;;;;;15.50;3.25;;;10.00;99.90;;;;;;5023299;28;20044;-72
2023/12/25 05:50:39;;;;;;;13.20;2.13;;;10.00;99.90;;;;;;5014885;28;20388;-72
2023/12/25 05:53:05;;;;;;;19.23;2.80;;;9.90;99.90;;;;;;5019739;28;20049;-71
2023/12/25 05:55:31;;;;;;;16.88;3.05;;;10.00;99.90;;;;;;5003722;28;20087;-71
2023/12/25 05:57:57;;;;;;;19.75;3.30;;;9.90;99.90;;;;;;5009237;28;20487;-72
2023/12/25 06:00:23;;;;;;;20.63;2.55;;;9.90;99.90;;;;;;5010791;28;20069;-71
2023/12/25 06:02:50;;;;;;;15.77;3.08;;;9.90;99.90;;;;;;5028872;28;20175;-71
2023/12/25 06:05:16;;;;;;;13.68;2.00;;;9.80;99.90;;;;;;5030760;28;20110;-71
2023/12/25 06:07:41;;;;;;;9.73;2.40;;;9.80;99.90;;;;;;5015559;28;20052;-71
2023/12/25 06:10:07;;;;;;;18.83;3.13;;;9.80;99.90;;;;;;5031018;28;20437;-71
2023/12/25 06:12:33;;;;;;;9.48;1.65;;;9.80;99.90;;;;;;5013817;28;20048;-72
2023/12/25 06:15:03;;;;;;;6.20;2.22;;;9.80;99.90;;;;;;5038677;28;20573;-72
2023/12/25 06:17:29;;;;;;;13.95;2.50;;;9.80;99.90;;;;;;5042570;28;20491;-71
2023/12/25 06:19:54;;;;;;;18.98;3.55;;;9.80;99.90;;;;;;5023908;28;20099;-71
2023/12/25 06:22:20;;;;;;;6.22;1.35;;;9.80;99.90;;;;;;5040735;28;20090;-71
2023/12/25 06:24:46;;;;;;;17.90;3.55;;;9.70;99.90;;;;;;5023799;28;20628;-71
2023/12/25 06:27:11;;;;;;;11.77;1.98;;;9.70;99.90;;;;;;5036531;28;20041;-71
2023/12/25 06:29:38;;;;;;;16.08;2.92;;;9.70;99.90;;;;;;5030371;28;20556;-71
2023/12/25 06:32:04;;;;;;;18.02;3.40;;;9.70;99.90;;;;;;4995197;28;20502;-71
2023/12/25 06:34:29;;;;;;;16.17;2.90;;;9.60;99.90;;;;;;4988766;28;20048;-71
2023/12/25 06:36:55;;;;;;;11.82;2.22;;;9.60;99.90;;;;;;5014824;28;20513;-71
2023/12/25 06:39:22;;;;;;;19.73;3.72;;;9.60;99.90;;;;;;5016492;28;20483;-71
2023/12/25 06:41:48;;;;;;;10.63;1.70;;;9.60;99.90;;;;;;5047770;28;20040;-71
2023/12/25 06:44:14;;;;;;;4.63;1.08;;;9.60;99.90;;;;;;4994372;28;20048;-71
2023/12/25 06:46:40;;;;;;;21.75;3.65;;;9.60;99.90;;;;;;5010386;28;20083;-71
2023/12/25 06:49:05;;;;;;;10.38;1.88;;;9.50;99.90;;;;;;5014894;28;20040;-72
2023/12/25 06:51:31;;;;;;;24.25;3.42;;;9.50;99.90;;;;;;5015887;28;20465;-71
2023/12/25 06:53:57;;;;;;;19.98;3.05;;;9.50;99.90;;;;;;5053882;28;20098;-71
2023/12/25 06:56:23;;;;;;;7.82;1.10;;;9.50;99.90;;;;;;5045371;28;20059;-71
2023/12/25 06:58:48;;;;;;;9.02;1.48;;;9.40;99.90;;;;;;5048502;28;20044;-72
2023/12/25 07:01:20;;;;;;;12.75;1.60;;;9.40;99.90;;;;;;5057033;28;20048;-71
2023/12/25 07:03:46;;;;;;;10.02;1.55;;;9.40;99.90;;;;;;5059602;28;20032;-71
2023/12/25 07:06:11;;;;;;;20.00;1.80;;;9.40;99.90;;;;;;5010701;28;20029;-71
2023/12/25 07:08:37;;;;;;;14.80;2.60;;;9.40;99.90;;;;;;5007107;28;20494;-71
2023/12/25 07:11:03;;;;;;;8.80;1.85;;;9.30;99.90;;;;;;5032104;28;20056;-71
2023/12/25 07:13:31;;;;;;;12.40;2.58;;;9.40;99.90;;;;;;5018895;28;20045;-72
2023/12/25 07:15:58;;;;;;;9.85;1.30;;;9.40;99.90;;;;;;5027557;28;20112;-71
2023/12/25 07:18:30;;;;;;;9.38;1.98;;;9.30;99.90;;;;;;5020795;28;20131;-70
2023/12/25 07:20:55;;;;;;;4.13;1.25;;;9.30;99.90;;;;;;5029508;28;20053;-71
2023/12/25 07:23:21;;;;;;;18.35;2.70;;;9.30;99.90;;;;;;5022110;28;20501;-71
2023/12/25 07:25:47;;;;;;;6.32;1.40;;;9.30;99.90;;;;;;5011394;28;20139;-71
2023/12/25 07:28:13;;;;;;;17.15;2.30;;;9.30;99.90;;;;;;5013373;28;20070;-71
2023/12/25 07:30:39;;;;;;;1.98;0.80;;;9.30;99.90;;;;;;5033865;28;20445;-71
2023/12/25 07:33:05;;;;;;;11.73;1.50;;;9.30;99.90;;;;;;5044093;28;20132;-71
2023/12/25 07:35:30;;;;;;;24.15;3.58;;;9.30;99.90;;;;;;5035373;28;20057;-71
2023/12/25 07:37:56;;;;;;;23.38;3.20;;;9.40;99.90;;;;;;5042630;28;20127;-71
2023/12/25 07:40:22;;;;;;;29.50;4.18;;;9.30;99.90;;;;;;5020830;28;20041;-71
2023/12/25 07:42:48;;;;;;;19.73;3.72;;;9.40;99.90;;;;;;5031482;28;20313;-71
2023/12/25 07:45:14;;;;;;;22.45;3.17;;;9.40;99.90;;;;;;5013458;28;20361;-71
2023/12/25 07:47:40;;;;;;;17.15;3.28;;;9.40;99.90;;;;;;5033069;28;20049;-71
2023/12/25 07:50:06;;;;;;;15.85;2.63;;;9.40;99.90;;;;;;5055038;28;20095;-70
2023/12/25 07:52:32;;;;;;;19.75;3.25;;;9.40;99.90;;;;;;5012135;28;20053;-71
2023/12/25 07:54:59;;;;;;;13.10;2.50;;;9.40;99.90;;;;;;5029919;28;20054;-71
2023/12/25 07:57:24;;;;;;;9.10;1.80;;;9.30;99.90;;;;;;5036786;28;20547;-71
2023/12/25 07:59:50;;;;;;;16.70;2.45;;;9.30;99.90;;;;;;5040555;28;20087;-71
2023/12/25 08:02:16;;;;;;;9.73;1.90;;;9.30;99.90;;;;;;5048477;28;20044;-71
2023/12/25 08:04:42;;;;;;;11.73;2.22;;;9.20;99.90;;;;;;5045906;28;20044;-70
2023/12/25 08:07:08;;;;;;;11.32;3.08;;;9.20;99.90;;;;;;5033642;28;20085;-70
2023/12/25 08:09:34;;;;;;;6.60;1.38;;;9.20;99.90;;;;;;5037426;28;20091;-71
2023/12/25 08:11:59;;;;;;;6.82;1.45;;;9.10;99.90;;;;;;5014918;28;20568;-71
2023/12/25 08:14:25;;;;;;;6.93;2.33;;;9.20;99.90;;;;;;5016208;28;20040;-71
2023/12/25 08:16:51;;;;;;;7.57;2.03;;;9.20;99.90;;;;;;5012943;28;20059;-71
2023/12/25 08:19:17;;;;;;;4.20;1.20;;;9.10;99.90;;;;;;5032699;28;20088;-70
2023/12/25 08:21:42;;;;;;;11.02;2.00;;;9.10;99.90;;;;;;5015496;28;20040;-71
2023/12/25 08:24:10;;;;;;;2.53;0.30;;;9.10;99.90;;;;;;5038319;28;20054;-71
2023/12/25 08:26:35;;;;;;;4.35;1.27;;;9.10;99.90;;;;;;5032186;28;20036;-71
2023/12/25 08:29:01;;;;;;;7.60;1.85;;;9.00;99.90;;;;;;5029190;28;20089;-71
2023/12/25 08:31:27;;;;;;;7.07;1.20;;;9.10;99.90;;;;;;5026490;28;20044;-71
2023/12/25 08:33:52;;;;;;;12.20;1.80;;;9.00;99.90;;;;;;5026220;28;20053;-70
2023/12/25 08:36:19;;;;;;;6.68;1.58;;;9.00;99.90;;;;;;5022616;28;20059;-71
2023/12/25 08:38:44;;;;;;;4.00;0.77;;;9.00;99.90;;;;;;5028366;28;20071;-70
2023/12/25 08:41:11;;;;;;;8.05;1.40;;;9.00;99.90;;;;;;5014263;28;20044;-71
2023/12/25 08:43:36;;;;;;;5.93;1.35;;;9.00;99.90;;;;;;5013186;28;20079;-71
2023/12/25 08:46:02;;;;;;;12.27;2.10;;;9.00;99.90;;;;;;5032689;28;20420;-70
2023/12/25 08:48:28;;;;;;;9.88;1.88;;;9.00;99.90;;;;;;5027274;28;20040;-71
2023/12/25 08:50:54;;;;;;;4.47;0.82;;;8.90;99.90;;;;;;5027700;28;20605;-70
2023/12/25 08:53:19;;;;;;;8.15;1.40;;;8.90;99.90;;;;;;5026605;28;20115;-70
2023/12/25 08:55:45;;;;;;;16.50;2.05;;;8.90;99.90;;;;;;5028746;28;20105;-70
2023/12/25 08:58:11;;;;;;;12.23;2.28;;;8.90;99.90;;;;;;5027217;28;20491;-71
2023/12/25 09:00:37;;;;;;;7.68;0.77;;;8.90;99.90;;;;;;5010786;28;20040;-71
2023/12/25 09:03:03;;;;;;;12.52;2.05;;;8.90;99.90;;;;;;5062981;28;20040;-70
2023/12/25 09:05:28;;;;;;;8.32;1.90;;;9.00;99.90;;;;;;5031484;28;20577;-70
2023/12/25 09:07:54;;;;;;;6.63;1.70;;;9.00;99.90;;;;;;5030726;28;20079;-70
2023/12/25 09:10:20;;;;;;;4.75;0.80;;;9.00;99.90;;;;;;5009918;28;20106;-70
2023/12/25 09:12:47;;;;;;;14.60;2.42;;;9.00;99.90;;;;;;5022812;28;20398;-70
2023/12/25 09:15:13;;;;;;;15.90;1.95;;;9.00;99.90;;;;;;5027444;28;20052;-70
2023/12/25 09:17:38;;;;;;;14.20;3.70;;;9.00;99.90;;;;;;5024095;28;20045;-70
2023/12/25 09:20:05;;;;;;;10.85;1.60;;;9.00;99.90;;;;;;5027984;28;20044;-70
2023/12/25 09:22:31;;;;;;;3.33;0.85;;;8.90;99.90;;;;;;5032158;28;20055;-70
2023/12/25 09:24:56;;;;;;;11.63;2.25;;;8.90;99.90;;;;;;5048703;28;20370;-70
2023/12/25 09:27:22;;;;;;;14.88;2.25;;;9.00;99.90;;;;;;5024762;28;20464;-70
2023/12/25 09:29:48;;;;;;;16.98;2.65;;;8.90;99.90;;;;;;5043743;28;20043;-70
2023/12/25 09:32:13;;;;;;;15.70;2.50;;;8.90;99.90;;;;;;5009629;28;20045;-70
2023/12/25 09:34:39;;;;;;;11.30;2.90;;;8.90;99.90;;;;;;5038371;28;20123;-70
2023/12/25 09:37:05;;;;;;;17.73;2.70;;;9.00;99.90;;;;;;5054796;28;20045;-70
2023/12/25 09:39:31;;;;;;;6.03;1.38;;;9.00;99.90;;;;;;5026718;28;20054;-70
2023/12/25 09:41:57;;;;;;;9.95;2.20;;;9.00;99.90;;;;;;5044462;28;20398;-70
2023/12/25 09:44:23;;;;;;;12.43;2.22;;;9.00;99.90;;;;;;5007376;28;20053;-70
2023/12/25 09:46:49;;;;;;;11.18;1.63;;;9.00;99.90;;;;;;5027341;28;20051;-70
2023/12/25 09:49:22;;;;;;;19.13;2.85;;;9.10;99.90;;;;;;5042649;28;20045;-70
2023/12/25 09:51:52;;;;;;;10.43;1.70;;;9.10;99.90;;;;;;5035223;28;20063;-70
2023/12/25 09:54:19;;;;;;;16.77;2.28;;;9.10;99.90;;;;;;5050948;28;20095;-70
2023/12/25 09:56:45;;;;;;;16.98;2.40;;;9.10;99.90;;;;;;5017433;28;20043;-70
2023/12/25 09:59:12;;;;;;;10.82;1.60;;;9.10;99.90;;;;;;5020692;28;20090;-70
2023/12/25 10:01:38;;;;;;;15.95;2.42;;;9.10;99.90;;;;;;5042650;28;20140;-70
2023/12/25 10:04:05;;;;;;;13.90;2.40;;;9.10;99.90;;;;;;5034230;28;20051;-70
2023/12/25 10:06:30;;;;;;;6.63;1.05;;;9.10;99.90;;;;;;5042006;28;20262;-70
2023/12/25 10:08:56;;;;;;;9.50;1.15;;;9.10;99.90;;;;;;5035976;28;20044;-70
2023/12/25 10:11:22;;;;;;;13.55;2.42;;;9.10;99.90;;;;;;5019860;28;20053;-70
2023/12/25 10:13:51;;;;;;;8.52;1.92;;;9.10;99.90;;;;;;5055910;28;21417;-70
2023/12/25 10:16:17;;;;;;;8.05;2.25;;;9.10;99.90;;;;;;5039441;28;20174;-70
2023/12/25 10:18:43;;;;;;;10.00;1.58;;;9.20;99.90;;;;;;4998183;28;20798;-70
2023/12/25 10:21:09;;;;;;;12.00;2.65;;;9.20;99.90;;;;;;5024575;28;20041;-70
2023/12/25 10:23:36;;;;;;;16.63;2.75;;;9.30;99.90;;;;;;5031870;28;20044;-69
2023/12/25 10:26:03;;;;;;;11.15;1.77;;;9.30;99.90;;;;;;5019415;28;20071;-70
2023/12/25 10:28:36;;;;;;;16.52;1.95;;;9.30;99.90;;;;;;5041750;28;20041;-70
2023/12/25 10:31:04;;;;;;;19.33;3.70;;;9.30;99.90;;;;;;5047385;28;20124;-70
2023/12/25 10:33:31;;;;;;;8.88;1.33;;;9.30;99.90;;;;;;5048770;28;20045;-70
2023/12/25 10:36:05;;;;;;;9.10;2.08;;;9.30;99.90;;;;;;5030650;28;20045;-70
2023/12/25 10:38:33;;;;;;;18.30;3.45;;;9.30;99.90;;;;;;5023649;28;20162;-70
2023/12/25 10:41:22;;;;;;;6.05;1.42;;;9.30;99.90;;;;;;5034462;28;20076;-70
2023/12/25 10:43:58;;;;;;;12.95;2.35;;;9.30;99.90;;;;;;5047956;28;20044;-70
2023/12/25 10:46:36;;;;;;;12.93;2.85;;;9.30;99.90;;;;;;5056634;28;20055;-70
2023/12/25 10:49:05;;;;;;;2.38;0.43;;;9.30;99.90;;;;;;5050989;28;20048;-71
2023/12/25 10:51:32;;;;;;;11.82;2.47;;;9.30;99.90;;;;;;5055820;28;20529;-70
2023/12/25 10:54:03;;;;;;;11.45;1.60;;;9.30;99.90;;;;;;5033561;28;20457;-71
2023/12/25 10:56:33;;;;;;;6.05;0.43;;;9.30;99.90;;;;;;5057056;28;20105;-70
2023/12/25 10:59:24;;;;;;;14.10;1.60;;;9.30;99.90;;;;;;5035059;28;20105;-70
2023/12/25 11:01:52;;;;;;;10.68;2.00;;;9.30;99.90;;;;;;5029087;28;20032;-70
2023/12/25 11:04:20;;;;;;;5.82;0.70;;;9.30;99.90;;;;;;5048602;28;20126;-71
2023/12/25 11:06:47;;;;;;;10.68;2.10;;;9.30;99.90;;;;;;5049746;28;20394;-70
2023/12/25 11:09:15;;;;;;;17.17;3.08;;;9.40;99.90;;;;;;5035353;28;20059;-70
2023/12/25 11:11:41;;;;;;;13.25;1.63;;;9.40;99.90;;;;;;5036005;28;20060;-70
2023/12/25 11:14:07;;;;;;;18.48;2.97;;;9.40;99.90;;;;;;5025986;28;20109;-71
2023/12/25 11:16:36;;;;;;;12.57;1.67;;;9.40;99.90;;;;;;5029885;28;20122;-70
2023/12/25 11:19:04;;;;;;;16.27;3.15;;;9.40;99.90;;;;;;5045543;28;20044;-70
2023/12/25 11:21:33;;;;;;;19.52;3.08;;;9.40;99.90;;;;;;5046471;28;20044;-70
2023/12/25 11:24:00;;;;;;;8.30;1.23;;;9.50;99.90;;;;;;5045567;28;20063;-70
2023/12/25 11:26:30;;;;;;;23.73;2.45;;;9.50;99.90;;;;;;5029798;28;20084;-70
2023/12/25 11:29:10;;;;;;;15.70;3.00;;;9.60;99.90;;;;;;5044845;28;20403;-70
2023/12/25 11:31:43;;;;;;;;;;;9.60;99.90;;;;;;5046834;28;20053;-70
2023/12/25 11:34:23;;;;;;;5.05;1.55;;;9.60;99.90;;;;;;5047576;28;20378;-70
2023/12/25 11:36:56;;;;;;;3.72;0.68;;;9.70;99.90;;;;;;5027160;28;20136;-70
2023/12/25 11:39:27;;;;;;;16.73;2.25;;;9.70;99.90;;;;;;5047221;28;20048;-70
2023/12/25 11:41:54;;;;;;;10.13;1.30;;;9.60;99.90;;;;;;5012086;28;20106;-70
2023/12/25 11:44:31;;;;;;;10.45;1.65;;;9.60;99.90;;;;;;5030171;28;20405;-70
2023/12/25 11:47:02;;;;;;;4.10;0.77;;;9.60;99.90;;;;;;5028917;28;20032;-70
2023/12/25 11:49:31;;;;;;;0.03;0.03;;;9.60;99.90;;;;;;5027831;28;20052;-70
2023/12/25 11:51:57;;;;;;;20.60;2.70;;;9.60;99.90;;;;;;5046371;28;20061;-70
2023/12/25 11:54:29;;;;;;;19.63;2.28;;;9.60;99.90;;;;;;5044734;28;20381;-70
2023/12/25 11:57:00;;;;;;;16.17;1.65;;;9.60;99.90;;;;;;5046033;28;20171;-70
2023/12/25 11:59:27;;;;;;;;;;;9.60;99.90;;;;;;5028361;28;20063;-70
2023/12/25 12:01:53;;;;;;;2.92;0.75;;;9.60;99.90;;;;;;5008568;28;19928;-70
2023/12/25 12:04:18;;;;;;;15.73;2.08;;;9.60;99.90;;;;;;5025911;28;20518;-70
2023/12/25 12:06:47;;;;;;;6.82;1.50;;;9.60;99.90;;;;;;5029458;28;20040;-70
2023/12/25 12:09:13;;;;;;;14.48;1.95;;;9.50;99.90;;;;;;5031095;28;20556;-70
2023/12/25 12:11:40;;;;;;;23.13;3.90;;;9.60;99.90;;;;;;4991921;28;20135;-70
2023/12/25 12:14:06;;;;;;;15.18;1.63;;;9.60;99.90;;;;;;5041980;28;20049;-70
2023/12/25 12:16:34;;;;;;;17.33;2.28;;;9.60;99.90;;;;;;5044093;28;20056;-70
2023/12/25 12:19:01;;;;;;;14.88;2.20;;;9.60;99.90;;;;;;5023442;28;20033;-70
2023/12/25 12:21:27;;;;;;;16.90;2.35;;;9.60;99.90;;;;;;5024643;28;20052;-70
2023/12/25 12:23:52;;;;;;;11.63;2.33;;;9.60;99.90;;;;;;5041760;28;20040;-70
2023/12/25 12:26:18;;;;;;;10.25;1.77;;;9.70;99.90;;;;;;5027931;28;20040;-71
2023/12/25 12:28:45;;;;;;;10.23;1.08;;;9.70;99.90;;;;;;5025810;28;20698;-70
2023/12/25 12:31:13;;;;;;;14.85;1.45;;;9.70;99.90;;;;;;5043477;28;20051;-70
2023/12/25 12:33:41;;;;;;;13.18;1.88;;;9.70;99.90;;;;;;5041709;28;20460;-70
2023/12/25 12:36:07;;;;;;;8.35;1.63;;;9.70;99.90;;;;;;5039431;28;20040;-70
2023/12/25 12:38:33;;;;;;;12.55;0.80;;;9.80;99.90;;;;;;5037714;28;20520;-71
2023/12/25 12:40:59;;;;;;;15.63;1.98;;;9.80;99.90;;;;;;5034236;28;20441;-70
2023/12/25 12:43:26;;;;;;;10.35;1.80;;;9.80;99.90;;;;;;5014270;28;20215;-70
2023/12/25 12:45:51;;;;;;;10.90;2.15;;;9.90;99.90;;;;;;5025776;28;20051;-70